Time;durP1;ratioP1;P1;durP2;ratioP2;P2;SDS_P1;SDS_P2;PMS_P1;PMS_P2;Temp;Humidity;BMP_temperature;BMP_pressure;BME280_temperature;BME280_humidity;BME280_pressure;Samples;Min_cycle;Max_cycle;Signal;HPM_P1;HPM_P2
2021/12/25 00:01:06;;;;;;;97.32;44.10;;;9.00;99.90;;;;;;5075427;28;20033;-81
2021/12/25 00:03:32;;;;;;;90.80;44.17;;;9.00;99.90;;;;;;5074561;28;20475;-81
2021/12/25 00:05:59;;;;;;;97.32;46.53;;;9.00;99.90;;;;;;5074797;28;20028;-81
2021/12/25 00:08:27;;;;;;;110.50;50.25;;;9.10;99.90;;;;;;5073310;28;20021;-81
2021/12/25 00:10:55;;;;;;;99.07;47.60;;;9.10;99.90;;;;;;5074186;28;20123;-81
2021/12/25 00:13:21;;;;;;;90.45;43.47;;;8.90;99.90;;;;;;5074077;28;20028;-81
2021/12/25 00:15:48;;;;;;;97.35;44.95;;;9.00;99.90;;;;;;5074246;28;20078;-81
2021/12/25 00:18:14;;;;;;;86.45;43.05;;;9.10;99.90;;;;;;5072890;28;20085;-81
2021/12/25 00:20:40;;;;;;;86.45;43.30;;;9.10;99.90;;;;;;5074019;28;20049;-81
2021/12/25 00:23:07;;;;;;;92.97;44.60;;;9.10;99.90;;;;;;5074255;28;20067;-79
2021/12/25 00:25:38;;;;;;;91.55;43.42;;;9.20;99.90;;;;;;5073779;28;20025;-81
2021/12/25 00:30:40;;;;;;;97.00;43.60;;;9.20;99.90;;;;;;5073829;28;20027;-76
2021/12/25 00:33:37;;;;;;;90.70;43.35;;;9.20;99.90;;;;;;5073616;28;20503;-82
2021/12/25 00:35:52;;;;;;;93.95;43.22;;;9.20;99.90;;;;;;5072366;28;20020;-81
2021/12/25 00:38:17;;;;;;;92.57;43.33;;;9.00;99.90;;;;;;5072109;28;20500;-81
2021/12/25 00:40:43;;;;;;;105.32;44.53;;;8.90;99.90;;;;;;5073723;28;20071;-81
2021/12/25 00:43:10;;;;;;;90.32;44.40;;;8.80;99.90;;;;;;5072338;28;20455;-82
2021/12/25 00:45:35;;;;;;;94.47;44.28;;;8.80;99.90;;;;;;5073520;28;20051;-82
2021/12/25 00:48:01;;;;;;;102.43;45.03;;;8.80;99.90;;;;;;5073543;28;20115;-82
2021/12/25 00:50:27;;;;;;;94.68;43.83;;;8.90;99.90;;;;;;5072904;28;20174;-82
2021/12/25 00:52:53;;;;;;;90.85;42.22;;;9.10;99.90;;;;;;5074606;28;20098;-80
2021/12/25 00:55:19;;;;;;;88.03;42.03;;;9.10;99.90;;;;;;5072066;28;20479;-80
2021/12/25 00:57:44;;;;;;;97.03;42.50;;;9.10;99.90;;;;;;5055419;28;20394;-81
2021/12/25 01:00:12;;;;;;;103.20;43.13;;;9.20;99.90;;;;;;5072026;28;20036;-81
2021/12/25 01:02:41;;;;;;;89.45;43.40;;;9.00;99.90;;;;;;5072168;28;20021;-81
2021/12/25 01:05:09;;;;;;;92.78;42.15;;;9.00;99.90;;;;;;5072073;28;20431;-81
2021/12/25 01:07:35;;;;;;;87.90;42.90;;;9.00;99.90;;;;;;5073295;28;20067;-81
2021/12/25 01:10:03;;;;;;;88.20;42.65;;;9.10;99.90;;;;;;5071683;28;20370;-81
2021/12/25 01:12:37;;;;;;;90.07;41.90;;;9.30;99.90;;;;;;5071724;28;20115;-81
2021/12/25 01:15:06;;;;;;;80.13;39.15;;;9.20;99.90;;;;;;5055318;28;20037;-81
2021/12/25 01:20:31;;;;;;;79.78;39.95;;;9.30;99.90;;;;;;5071770;28;20043;-80
2021/12/25 01:24:14;;;;;;;90.90;40.45;;;9.40;99.90;;;;;;5071921;28;20439;-80
2021/12/25 01:32:14;;;;;;;78.57;38.53;;;9.40;99.90;;;;;;5071416;28;20038;-81
2021/12/25 01:38:06;;;;;;;60.38;34.13;;;9.30;99.90;;;;;;5050747;28;20041;-80
2021/12/25 01:49:25;;;;;;;50.75;30.77;;;9.00;99.90;;;;;;5071659;28;20055;-83
2021/12/25 01:51:50;;;;;;;53.50;29.35;;;8.80;99.90;;;;;;5071355;28;20472;-82
2021/12/25 01:54:16;;;;;;;51.97;26.10;;;8.60;99.90;;;;;;5072606;28;20111;-82
2021/12/25 01:56:42;;;;;;;49.08;26.27;;;8.80;99.90;;;;;;5071485;28;20033;-82
2021/12/25 01:59:08;;;;;;;46.95;25.20;;;9.00;99.90;;;;;;5071583;28;20128;-81
2021/12/25 02:01:34;;;;;;;37.67;22.55;;;9.00;99.90;;;;;;5071328;28;20060;-82
2021/12/25 02:04:00;;;;;;;33.90;20.50;;;9.00;99.90;;;;;;5071519;28;20228;-82
2021/12/25 02:06:26;;;;;;;31.80;16.17;;;9.00;99.90;;;;;;5072597;28;20020;-82
2021/12/25 02:08:51;;;;;;;30.88;16.17;;;8.90;99.90;;;;;;5070878;28;20033;-82
2021/12/25 02:11:17;;;;;;;25.10;13.27;;;8.80;99.90;;;;;;5071272;28;20036;-82
2021/12/25 02:13:46;;;;;;;19.38;12.30;;;8.60;99.90;;;;;;5071202;28;20505;-81
2021/12/25 02:16:18;;;;;;;23.80;11.93;;;8.40;99.90;;;;;;5072641;28;20017;-81
2021/12/25 02:21:35;;;;;;;16.35;9.73;;;8.20;99.90;;;;;;5072309;28;20074;-81
2021/12/25 02:24:04;;;;;;;15.07;8.60;;;8.30;99.90;;;;;;5072369;28;20469;-81
2021/12/25 02:26:30;;;;;;;15.25;9.80;;;8.10;99.90;;;;;;5062033;28;20059;-81
2021/12/25 02:28:56;;;;;;;14.88;9.45;;;8.30;99.90;;;;;;5052169;28;20477;-80
2021/12/25 02:31:22;;;;;;;18.35;9.00;;;8.20;99.90;;;;;;5051327;28;20053;-81
2021/12/25 02:33:48;;;;;;;12.95;8.85;;;8.30;99.90;;;;;;5052317;28;20056;-80
2021/12/25 02:36:14;;;;;;;14.85;9.40;;;8.40;99.90;;;;;;5051367;28;20118;-82
2021/12/25 02:38:42;;;;;;;14.68;8.75;;;8.20;99.90;;;;;;5051096;28;20029;-82
2021/12/25 02:41:09;;;;;;;14.10;9.02;;;8.20;99.90;;;;;;5051159;28;20029;-82
2021/12/25 02:43:36;;;;;;;17.83;10.48;;;8.40;99.90;;;;;;5050993;28;20031;-82
2021/12/25 02:46:03;;;;;;;15.27;8.55;;;8.50;99.90;;;;;;5050877;28;20032;-82
2021/12/25 02:48:33;;;;;;;15.82;8.93;;;8.40;99.90;;;;;;5050946;28;20481;-81
2021/12/25 02:50:59;;;;;;;14.55;10.05;;;8.00;99.90;;;;;;5050949;28;20048;-82
2021/12/25 02:53:26;;;;;;;14.98;9.18;;;7.90;99.90;;;;;;5050524;28;20033;-82
2021/12/25 02:55:52;;;;;;;12.52;8.50;;;7.90;99.90;;;;;;5053408;28;20024;-81
2021/12/25 02:58:21;;;;;;;12.10;9.27;;;7.70;99.90;;;;;;5054676;28;20029;-81
2021/12/25 03:00:52;;;;;;;14.13;8.57;;;7.70;99.90;;;;;;5054379;28;20370;-81
2021/12/25 03:03:18;;;;;;;17.13;9.80;;;7.60;99.90;;;;;;5054461;28;20025;-81
2021/12/25 03:05:44;;;;;;;16.90;9.30;;;7.70;99.90;;;;;;5054508;28;20053;-83
2021/12/25 03:08:13;;;;;;;13.05;8.73;;;7.70;99.90;;;;;;5054930;28;20045;-82
2021/12/25 03:10:49;;;;;;;14.50;8.40;;;7.60;99.90;;;;;;5074329;28;20051;-80
2021/12/25 03:15:47;;;;;;;13.75;8.95;;;7.40;99.90;;;;;;5074432;28;20028;-82
2021/12/25 03:18:16;;;;;;;13.15;9.05;;;7.50;99.90;;;;;;5075310;28;20071;-81
2021/12/25 03:20:46;;;;;;;18.60;10.25;;;7.80;99.90;;;;;;5073955;28;20032;-81
2021/12/25 03:23:21;;;;;;;15.27;9.95;;;8.00;99.90;;;;;;5074959;28;20496;-81
2021/12/25 03:25:49;;;;;;;13.80;8.98;;;8.00;99.90;;;;;;5057385;28;20024;-82
2021/12/25 03:28:16;;;;;;;19.55;9.63;;;7.90;99.90;;;;;;5073788;28;20038;-81
2021/12/25 03:30:43;;;;;;;12.50;8.43;;;8.00;99.90;;;;;;5074143;28;20070;-82
2021/12/25 03:33:15;;;;;;;13.27;8.80;;;8.10;99.90;;;;;;5073679;28;20127;-82
2021/12/25 03:35:41;;;;;;;14.07;9.43;;;8.00;99.90;;;;;;5075062;28;20024;-83
2021/12/25 03:38:11;;;;;;;13.77;9.57;;;7.90;99.90;;;;;;5075083;28;20031;-82
2021/12/25 03:40:37;;;;;;;13.77;9.63;;;7.60;99.90;;;;;;5073890;28;20024;-82
2021/12/25 03:43:03;;;;;;;14.57;9.77;;;7.80;99.90;;;;;;5075018;28;20052;-82
2021/12/25 03:45:32;;;;;;;15.63;10.95;;;7.80;99.90;;;;;;5057285;28;20035;-81
2021/12/25 03:58:44;;;;;;;23.17;15.80;;;7.50;99.90;;;;;;5073531;28;20044;-82
2021/12/25 04:04:15;;;;;;;25.40;16.55;;;7.60;99.90;;;;;;5074656;28;20044;-81
2021/12/25 04:07:00;;;;;;;25.55;17.60;;;7.70;99.90;;;;;;5072435;28;20029;-83
2021/12/25 04:09:28;;;;;;;27.43;18.20;;;7.50;99.90;;;;;;5074247;28;20104;-83
2021/12/25 04:11:58;;;;;;;27.23;18.77;;;7.50;99.90;;;;;;5073206;28;20020;-82
2021/12/25 04:14:24;;;;;;;29.00;18.77;;;7.70;99.90;;;;;;5073016;28;20404;-83
2021/12/25 04:16:51;;;;;;;30.90;19.63;;;7.70;99.90;;;;;;5073194;28;20024;-82
2021/12/25 04:19:17;;;;;;;33.55;21.30;;;7.70;99.90;;;;;;5072504;28;20094;-83
2021/12/25 04:21:53;;;;;;;37.08;22.88;;;7.50;99.90;;;;;;5074229;28;20021;-83
2021/12/25 04:24:19;;;;;;;36.88;24.63;;;7.60;99.90;;;;;;5072964;28;20033;-82
2021/12/25 04:26:47;;;;;;;41.80;25.23;;;7.70;99.90;;;;;;5072999;28;20013;-83
2021/12/25 04:29:33;;;;;;;47.35;27.52;;;7.80;99.90;;;;;;5072704;28;20075;-82
2021/12/25 04:47:55;;;;;;;40.35;26.80;;;7.30;99.90;;;;;;5073999;28;20381;-83
2021/12/25 05:05:06;;;;;;;43.92;27.23;;;7.20;99.90;;;;;;5073467;28;20112;-83
2021/12/25 05:07:50;;;;;;;46.28;28.25;;;7.20;99.90;;;;;;5072927;28;20025;-83
2021/12/25 05:10:15;;;;;;;50.10;28.80;;;7.30;99.90;;;;;;5071931;28;20562;-83
2021/12/25 05:12:42;;;;;;;46.63;28.20;;;7.20;99.90;;;;;;5072133;28;20029;-82
2021/12/25 05:15:08;;;;;;;44.65;27.48;;;7.20;99.90;;;;;;5055196;28;20380;-82
2021/12/25 05:17:34;;;;;;;46.50;29.23;;;7.10;99.90;;;;;;5071497;28;20039;-83
2021/12/25 05:20:00;;;;;;;44.38;27.27;;;7.20;99.90;;;;;;5072495;28;20028;-82
2021/12/25 05:22:26;;;;;;;47.08;28.98;;;7.30;99.90;;;;;;5072098;28;20017;-83
2021/12/25 05:24:53;;;;;;;54.60;28.55;;;7.40;99.90;;;;;;5072464;28;20074;-83
2021/12/25 05:27:20;;;;;;;42.40;24.75;;;7.10;99.90;;;;;;5055018;28;20396;-83
2021/12/25 05:29:47;;;;;;;41.58;26.27;;;6.90;99.90;;;;;;5071908;28;20296;-83
2021/12/25 05:32:17;;;;;;;40.13;24.75;;;7.00;99.90;;;;;;5072276;28;20396;-82
2021/12/25 05:35:06;;;;;;;42.67;26.55;;;6.90;99.90;;;;;;5072334;28;20477;-83
2021/12/25 05:37:48;;;;;;;44.45;27.00;;;6.90;99.90;;;;;;5071789;28;20029;-83
2021/12/25 05:40:25;;;;;;;46.97;27.15;;;6.90;99.90;;;;;;5071619;28;20032;-83
2021/12/25 05:42:52;;;;;;;47.65;27.25;;;6.90;99.90;;;;;;5071936;28;20021;-83
2021/12/25 05:45:21;;;;;;;45.28;26.88;;;6.90;99.90;;;;;;5071770;28;20473;-84
2021/12/25 05:48:13;;;;;;;42.85;26.67;;;6.90;99.90;;;;;;5074045;28;20083;-81
2021/12/25 05:50:42;;;;;;;42.13;24.70;;;7.10;99.90;;;;;;5073002;28;20477;-83
2021/12/25 05:53:32;;;;;;;29.30;18.58;;;7.20;99.90;;;;;;5071762;28;20036;-83
2021/12/25 05:56:17;;;;;;;20.15;13.55;;;7.20;99.90;;;;;;5073822;28;20238;-83
2021/12/25 05:58:50;;;;;;;18.15;11.95;;;7.10;99.90;;;;;;5072107;28;20115;-83
2021/12/25 06:01:42;;;;;;;15.68;10.90;;;7.00;99.90;;;;;;5072010;28;20025;-83
2021/12/25 06:04:08;;;;;;;18.35;12.40;;;7.00;99.90;;;;;;5073376;28;20025;-83
2021/12/25 06:06:34;;;;;;;19.52;11.60;;;6.90;99.90;;;;;;5071576;28;20036;-83
2021/12/25 06:09:07;;;;;;;19.33;12.98;;;6.80;99.90;;;;;;5071457;28;20028;-76
2021/12/25 06:11:36;;;;;;;20.25;13.30;;;6.90;99.90;;;;;;5073108;28;20032;-82
2021/12/25 06:14:11;;;;;;;21.77;14.00;;;6.80;99.90;;;;;;5071625;28;20032;-83
2021/12/25 06:16:56;;;;;;;22.70;14.77;;;6.70;99.90;;;;;;5072382;28;20040;-84
2021/12/25 06:19:45;;;;;;;21.55;14.18;;;6.80;99.90;;;;;;5071976;28;20040;-82
2021/12/25 06:22:29;;;;;;;16.92;12.05;;;6.80;99.90;;;;;;5073036;28;20086;-83
2021/12/25 06:25:05;;;;;;;14.77;10.00;;;6.70;99.90;;;;;;5071615;28;20025;-84
2021/12/25 06:27:46;;;;;;;13.00;10.07;;;6.60;99.90;;;;;;5071670;28;20480;-83
2021/12/25 06:30:30;;;;;;;16.58;10.60;;;6.70;99.90;;;;;;5075011;28;20086;-83
2021/12/25 06:33:16;;;;;;;15.85;10.18;;;6.80;99.90;;;;;;5076759;28;20045;-83
2021/12/25 06:36:17;;;;;;;16.10;10.52;;;6.40;99.90;;;;;;5080424;28;20036;-83
2021/12/25 06:39:10;;;;;;;18.00;13.63;;;6.20;99.90;;;;;;5075636;28;20393;-81
2021/12/25 06:42:09;;;;;;;19.45;14.02;;;6.10;99.90;;;;;;5076332;28;20029;-83
2021/12/25 06:44:35;;;;;;;19.13;14.07;;;6.00;99.90;;;;;;5058184;28;20388;-81
2021/12/25 06:47:02;;;;;;;21.85;15.25;;;6.10;99.90;;;;;;5075394;28;20024;-84
2021/12/25 06:49:29;;;;;;;20.50;15.15;;;6.00;99.90;;;;;;5074962;28;20028;-83
2021/12/25 06:52:14;;;;;;;24.65;16.42;;;6.10;99.90;;;;;;5074945;28;20103;-84
2021/12/25 06:54:48;;;;;;;44.70;19.05;;;6.40;99.90;;;;;;5059220;28;20063;-83
2021/12/25 06:57:25;;;;;;;56.05;18.80;;;6.30;99.90;;;;;;5074534;28;20025;-83
2021/12/25 06:59:52;;;;;;;39.17;15.43;;;6.10;99.90;;;;;;5074151;28;20067;-83
2021/12/25 07:02:17;;;;;;;37.80;18.00;;;5.90;99.90;;;;;;5074532;28;20032;-83
2021/12/25 07:05:01;;;;;;;61.65;17.38;;;6.00;99.90;;;;;;5076204;28;20027;-83
2021/12/25 07:07:46;;;;;;;33.83;13.68;;;6.00;99.90;;;;;;5075684;28;20033;-83
2021/12/25 07:10:20;;;;;;;13.52;10.05;;;5.90;99.90;;;;;;5075703;28;20028;-84
2021/12/25 07:12:54;;;;;;;14.55;10.13;;;5.70;99.90;;;;;;5074354;28;20043;-83
2021/12/25 07:15:39;;;;;;;15.07;10.45;;;5.40;99.90;;;;;;5074644;28;20111;-81
2021/12/25 07:18:23;;;;;;;27.92;12.90;;;5.40;99.90;;;;;;5085168;28;20048;-83
2021/12/25 07:21:13;;;;;;;47.92;16.88;;;5.50;99.90;;;;;;5074213;28;20432;-83
2021/12/25 07:23:55;;;;;;;22.23;13.07;;;5.40;99.90;;;;;;5074626;28;20028;-83
2021/12/25 07:26:47;;;;;;;;;;;5.40;99.90;;;;;;5076189;28;20037;-84
2021/12/25 07:29:22;;;;;;;19.02;14.52;;;5.40;99.90;;;;;;5074211;28;20046;-84
2021/12/25 07:31:49;;;;;;;19.58;14.35;;;5.40;99.90;;;;;;5076023;28;20099;-82
2021/12/25 07:34:15;;;;;;;19.20;14.88;;;5.30;99.90;;;;;;5075112;28;20432;-83
2021/12/25 07:36:41;;;;;;;20.85;15.90;;;5.20;99.90;;;;;;5075394;28;20143;-83
2021/12/25 07:39:06;;;;;;;23.00;17.23;;;5.30;99.90;;;;;;5074208;28;20115;-84
2021/12/25 07:41:32;;;;;;;20.23;15.70;;;5.30;99.90;;;;;;5074452;28;20427;-83
2021/12/25 07:43:59;;;;;;;21.25;15.88;;;5.10;99.90;;;;;;5074953;28;20524;-83
2021/12/25 07:46:38;;;;;;;19.85;14.82;;;5.20;99.90;;;;;;5076713;28;20051;-84
2021/12/25 07:49:04;;;;;;;21.20;14.93;;;5.30;99.90;;;;;;5082008;28;20032;-83
2021/12/25 07:51:31;;;;;;;22.45;16.00;;;5.40;99.90;;;;;;5075015;28;20036;-84
2021/12/25 07:53:56;;;;;;;19.67;14.85;;;5.40;99.90;;;;;;5075398;28;20388;-84
2021/12/25 07:56:25;;;;;;;22.10;16.65;;;5.20;99.90;;;;;;5082210;28;20029;-84
2021/12/25 07:58:51;;;;;;;22.52;16.08;;;5.10;99.90;;;;;;5073729;28;20062;-84
2021/12/25 08:01:17;;;;;;;22.50;17.27;;;4.90;99.90;;;;;;5073535;28;20086;-83
2021/12/25 08:03:43;;;;;;;24.13;18.02;;;4.80;99.90;;;;;;5074912;28;20029;-83
2021/12/25 08:06:09;;;;;;;26.38;19.65;;;5.00;99.90;;;;;;5075018;28;20056;-83
2021/12/25 08:08:34;;;;;;;29.52;21.17;;;5.00;99.90;;;;;;5074615;28;20408;-84
2021/12/25 08:11:00;;;;;;;25.90;20.05;;;4.80;99.90;;;;;;5074494;28;20270;-83
2021/12/25 08:13:26;;;;;;;25.85;18.55;;;4.80;99.90;;;;;;5074330;28;20040;-83
2021/12/25 08:15:52;;;;;;;26.45;19.80;;;4.80;99.90;;;;;;5073257;28;20085;-83
2021/12/25 08:18:18;;;;;;;26.38;19.83;;;5.00;99.90;;;;;;5073069;28;20071;-82
2021/12/25 08:21:16;;;;;;;28.15;20.00;;;5.00;99.90;;;;;;5074076;28;20037;-79
2021/12/25 08:24:00;;;;;;;29.13;20.85;;;5.00;99.90;;;;;;5074457;28;20480;-83
2021/12/25 08:26:45;;;;;;;29.50;21.05;;;4.90;99.90;;;;;;5073932;28;20098;-83
2021/12/25 08:29:29;;;;;;;27.02;19.50;;;4.80;99.90;;;;;;5074208;28;20044;-82
2021/12/25 08:32:30;;;;;;;29.40;20.02;;;4.70;99.90;;;;;;5092425;28;20058;-82
2021/12/25 08:35:16;;;;;;;30.95;21.52;;;4.50;99.90;;;;;;5075813;28;20503;-83
2021/12/25 08:37:43;;;;;;;29.83;21.42;;;4.50;99.90;;;;;;5074150;28;20479;-83
2021/12/25 08:40:11;;;;;;;29.63;21.38;;;4.60;99.90;;;;;;5073716;28;20027;-81
2021/12/25 08:42:37;;;;;;;28.25;20.65;;;4.60;99.90;;;;;;5073877;28;20047;-82
2021/12/25 08:47:35;;;;;;;29.88;21.15;;;4.80;99.90;;;;;;5073725;28;20032;-81
2021/12/25 08:50:05;;;;;;;34.25;24.27;;;4.70;99.90;;;;;;5073983;28;20040;-82
2021/12/25 08:52:31;;;;;;;33.90;23.35;;;4.70;99.90;;;;;;5073369;28;20078;-83
2021/12/25 08:54:57;;;;;;;37.45;24.27;;;4.60;99.90;;;;;;5072332;28;20028;-82
2021/12/25 08:57:23;;;;;;;36.58;24.65;;;4.40;99.90;;;;;;5073696;28;20248;-82
2021/12/25 08:59:51;;;;;;;36.58;26.23;;;4.30;99.90;;;;;;5073581;28;20112;-82
2021/12/25 09:02:19;;;;;;;41.83;26.80;;;4.30;99.90;;;;;;5075074;28;20455;-82
2021/12/25 09:04:47;;;;;;;37.38;25.58;;;4.30;99.90;;;;;;5073590;28;20082;-82
2021/12/25 09:07:13;;;;;;;38.42;26.77;;;4.20;99.90;;;;;;5080786;28;20588;-81
2021/12/25 09:09:40;;;;;;;39.40;27.42;;;4.40;99.90;;;;;;5072917;28;20081;-82
2021/12/25 09:12:08;;;;;;;40.50;27.48;;;4.30;99.90;;;;;;5073422;28;20104;-82
2021/12/25 09:14:35;;;;;;;38.00;26.75;;;4.40;99.90;;;;;;5073275;28;20040;-82
2021/12/25 09:17:00;;;;;;;38.20;26.90;;;4.30;99.90;;;;;;5073415;28;20044;-81
2021/12/25 09:19:26;;;;;;;39.60;27.48;;;4.30;99.90;;;;;;5072982;28;20489;-82
2021/12/25 09:21:52;;;;;;;38.30;26.23;;;4.40;99.90;;;;;;5073491;28;20052;-81
2021/12/25 09:24:17;;;;;;;36.88;26.60;;;4.20;99.90;;;;;;5073017;28;20017;-82
2021/12/25 09:26:43;;;;;;;39.10;27.20;;;4.20;99.90;;;;;;5072792;28;20108;-82
2021/12/25 09:29:09;;;;;;;39.15;26.70;;;4.10;99.90;;;;;;5073238;28;20028;-82
2021/12/25 09:31:35;;;;;;;41.20;27.02;;;4.10;99.90;;;;;;5072844;28;20020;-82
2021/12/25 09:34:01;;;;;;;39.92;27.95;;;4.30;99.90;;;;;;5073178;28;20043;-81
2021/12/25 09:36:27;;;;;;;41.22;29.10;;;4.20;99.90;;;;;;5072993;28;20092;-82
2021/12/25 09:38:53;;;;;;;42.53;28.27;;;4.40;99.90;;;;;;5072942;28;20043;-83
2021/12/25 09:41:20;;;;;;;38.17;25.63;;;4.50;99.90;;;;;;5072938;28;20021;-82
2021/12/25 09:43:48;;;;;;;37.50;26.60;;;4.50;99.90;;;;;;5073041;28;20473;-80
2021/12/25 09:46:15;;;;;;;40.03;27.52;;;4.40;99.90;;;;;;5071724;28;20025;-81
2021/12/25 09:48:40;;;;;;;37.78;26.38;;;4.40;99.90;;;;;;5073041;28;20094;-82
2021/12/25 09:51:07;;;;;;;42.30;28.58;;;4.50;99.90;;;;;;5072676;28;20412;-81
2021/12/25 09:53:34;;;;;;;44.80;29.45;;;4.60;99.90;;;;;;5072588;28;20044;-82
2021/12/25 09:56:01;;;;;;;41.72;27.40;;;4.30;99.90;;;;;;5072947;28;20050;-81
2021/12/25 09:58:27;;;;;;;36.85;25.58;;;4.20;99.90;;;;;;5072736;28;20035;-82
2021/12/25 10:00:53;;;;;;;38.22;25.52;;;4.10;99.90;;;;;;5073105;28;20377;-80
2021/12/25 10:03:20;;;;;;;38.97;26.17;;;4.10;99.90;;;;;;5072685;28;20029;-82
2021/12/25 10:05:48;;;;;;;34.67;23.80;;;4.10;99.90;;;;;;5075457;28;20445;-82
2021/12/25 10:08:18;;;;;;;33.00;23.25;;;4.30;99.90;;;;;;5076374;28;20107;-82
2021/12/25 10:11:00;;;;;;;32.85;23.52;;;4.30;99.90;;;;;;5076824;28;20035;-79
2021/12/25 10:13:40;;;;;;;38.22;23.98;;;4.20;99.90;;;;;;5077041;28;20036;-80
2021/12/25 10:16:22;;;;;;;39.78;26.63;;;4.30;99.90;;;;;;5076942;28;20024;-82
2021/12/25 10:18:49;;;;;;;36.75;24.33;;;4.30;99.90;;;;;;5076397;28;20084;-82
2021/12/25 10:21:33;;;;;;;36.35;25.08;;;4.40;99.90;;;;;;5075096;28;20043;-81
2021/12/25 10:24:05;;;;;;;34.33;24.70;;;4.60;99.90;;;;;;5076534;28;20025;-82
2021/12/25 10:26:34;;;;;;;36.67;24.40;;;4.40;99.90;;;;;;5076443;28;20115;-81
2021/12/25 10:28:59;;;;;;;42.00;26.90;;;4.30;99.90;;;;;;5076453;28;20021;-81
2021/12/25 10:31:32;;;;;;;39.05;26.98;;;4.20;99.90;;;;;;5075275;28;20413;-81
2021/12/25 10:33:57;;;;;;;44.85;27.45;;;4.10;99.90;;;;;;5075161;28;20127;-81
2021/12/25 10:36:28;;;;;;;43.88;29.27;;;4.20;99.90;;;;;;5076293;28;20056;-81
2021/12/25 10:39:05;;;;;;;43.63;28.67;;;4.20;99.90;;;;;;5076240;28;20036;-82
2021/12/25 10:41:35;;;;;;;46.22;28.17;;;4.40;99.90;;;;;;5076359;28;20198;-81
2021/12/25 10:44:21;;;;;;;48.47;29.52;;;4.30;99.90;;;;;;5076264;28;20473;-81
2021/12/25 10:46:50;;;;;;;41.05;27.77;;;4.20;99.90;;;;;;5075022;28;20032;-81
2021/12/25 10:49:16;;;;;;;36.60;26.02;;;4.30;99.90;;;;;;5075813;28;20032;-82
2021/12/25 10:51:42;;;;;;;37.25;25.70;;;4.20;99.90;;;;;;5075851;28;20032;-82
2021/12/25 10:54:11;;;;;;;38.90;25.38;;;4.00;99.90;;;;;;5076033;28;20044;-82
2021/12/25 10:56:39;;;;;;;39.10;25.63;;;4.00;99.90;;;;;;5074811;28;20032;-81
2021/12/25 10:59:10;;;;;;;39.53;25.23;;;4.10;99.90;;;;;;5075720;28;20484;-81
2021/12/25 11:01:46;;;;;;;37.25;25.30;;;3.90;99.90;;;;;;5075743;28;20028;-82
2021/12/25 11:04:26;;;;;;;38.05;25.67;;;3.80;99.90;;;;;;5075573;28;20024;-81
2021/12/25 11:06:51;;;;;;;36.92;25.98;;;3.90;99.90;;;;;;5075406;28;20515;-82
2021/12/25 11:09:17;;;;;;;38.63;26.33;;;3.90;99.90;;;;;;5075393;28;20012;-82
2021/12/25 11:11:43;;;;;;;39.35;24.88;;;3.90;99.90;;;;;;5075685;28;20472;-81
2021/12/25 11:14:13;;;;;;;36.70;26.42;;;3.90;99.90;;;;;;5075610;28;20041;-82
2021/12/25 11:16:40;;;;;;;40.38;26.13;;;3.80;99.90;;;;;;5075347;28;20086;-82
2021/12/25 11:19:08;;;;;;;38.88;25.65;;;3.90;99.90;;;;;;5073862;28;20045;-82
2021/12/25 11:21:54;;;;;;;40.88;26.13;;;4.00;99.90;;;;;;5075189;28;20031;-81
2021/12/25 11:24:32;;;;;;;34.20;21.50;;;3.90;99.90;;;;;;5075216;28;20039;-81
2021/12/25 11:27:03;;;;;;;32.00;20.52;;;3.80;99.90;;;;;;5075254;28;20121;-81
2021/12/25 11:29:30;;;;;;;36.50;22.30;;;3.80;99.90;;;;;;5073897;28;20032;-82
2021/12/25 11:31:57;;;;;;;31.73;22.92;;;3.90;99.90;;;;;;5075367;28;20031;-82
2021/12/25 11:34:24;;;;;;;32.90;20.60;;;3.90;99.90;;;;;;5074805;28;20128;-81
2021/12/25 11:36:52;;;;;;;32.78;22.73;;;3.80;99.90;;;;;;5075064;28;20488;-82
2021/12/25 11:39:20;;;;;;;29.70;21.55;;;3.80;99.90;;;;;;5073767;28;20366;-81
2021/12/25 11:41:48;;;;;;;27.73;20.67;;;3.80;99.90;;;;;;5075020;28;20380;-81
2021/12/25 11:44:46;;;;;;;29.00;21.60;;;3.80;99.90;;;;;;5075109;28;20021;-81
2021/12/25 11:47:33;;;;;;;37.38;20.92;;;3.70;99.90;;;;;;5075058;28;20070;-81
2021/12/25 11:50:03;;;;;;;32.42;22.75;;;3.80;99.90;;;;;;5073463;28;20031;-80
2021/12/25 11:52:39;;;;;;;34.08;24.05;;;3.80;99.90;;;;;;5074914;28;20044;-81
2021/12/25 12:00:49;;;;;;;33.80;23.40;;;3.70;99.90;;;;;;5074429;28;20024;-81
2021/12/25 12:03:49;;;;;;;37.28;25.00;;;3.80;99.90;;;;;;5074436;28;20028;-82
2021/12/25 12:06:15;;;;;;;30.20;21.77;;;3.60;99.90;;;;;;5073297;28;20085;-82
2021/12/25 12:08:53;;;;;;;32.97;22.77;;;3.70;99.90;;;;;;5074388;28;20347;-82
2021/12/25 12:11:41;;;;;;;33.67;23.88;;;3.80;99.90;;;;;;5074355;28;20094;-81
2021/12/25 12:14:17;;;;;;;33.42;23.40;;;3.70;99.90;;;;;;5074428;28;20481;-82
2021/12/25 12:17:26;;;;;;;35.97;23.63;;;3.80;99.90;;;;;;5074100;28;20044;-81
2021/12/25 12:19:55;;;;;;;39.90;25.33;;;3.90;99.90;;;;;;5072366;28;20020;-82
2021/12/25 12:25:49;;;;;;;33.42;24.13;;;3.70;99.90;;;;;;5074169;28;20073;-81
2021/12/25 12:27:53;;;;;;;35.75;24.88;;;3.90;99.90;;;;;;5059725;28;20386;-81
2021/12/25 12:30:31;;;;;;;34.13;24.40;;;4.10;99.90;;;;;;5052801;28;20036;-82
2021/12/25 12:32:58;;;;;;;41.38;24.60;;;4.10;99.90;;;;;;5052698;28;20438;-82
2021/12/25 12:35:38;;;;;;;32.80;22.88;;;4.00;99.90;;;;;;5053855;28;20104;-81
2021/12/25 12:38:44;;;;;;;36.47;23.10;;;3.80;99.90;;;;;;5054006;28;20029;-81
2021/12/25 12:41:26;;;;;;;29.13;19.60;;;3.50;99.90;;;;;;5051702;28;20137;-80
2021/12/25 12:44:11;;;;;;;29.70;21.02;;;3.40;99.90;;;;;;5018766;28;20079;-82
2021/12/25 12:46:53;;;;;;;32.05;22.15;;;3.50;99.90;;;;;;5046572;28;20493;-81
2021/12/25 12:49:53;;;;;;;32.83;22.23;;;3.70;99.90;;;;;;5053878;28;20045;-81
2021/12/25 12:52:31;;;;;;;32.30;20.15;;;3.90;99.90;;;;;;5053258;28;20041;-81
2021/12/25 12:55:05;;;;;;;25.77;18.88;;;3.80;99.90;;;;;;5053616;28;20542;-81
2021/12/25 12:57:43;;;;;;;29.25;20.05;;;3.50;99.90;;;;;;5053826;28;20516;-79
2021/12/25 13:00:22;;;;;;;31.52;20.02;;;3.40;99.90;;;;;;5053803;28;20033;-81
2021/12/25 13:02:57;;;;;;;28.98;20.42;;;3.40;99.90;;;;;;5053683;28;20400;-79
2021/12/25 13:05:24;;;;;;;32.70;22.08;;;3.50;99.90;;;;;;5053296;28;20401;-82
2021/12/25 13:07:54;;;;;;;32.90;21.60;;;3.70;99.90;;;;;;5057143;28;20017;-79
2021/12/25 13:10:33;;;;;;;33.97;23.20;;;3.90;99.90;;;;;;5064995;28;20094;-81
2021/12/25 13:13:20;;;;;;;40.13;24.88;;;3.60;99.90;;;;;;5053312;28;20163;-81
2021/12/25 13:15:49;;;;;;;38.13;25.05;;;3.70;99.90;;;;;;5052911;28;20068;-80
2021/12/25 13:18:16;;;;;;;33.83;24.10;;;3.40;99.90;;;;;;5053353;28;20036;-80
2021/12/25 13:20:53;;;;;;;33.78;23.98;;;3.50;99.90;;;;;;5052927;28;20490;-81
2021/12/25 13:23:32;;;;;;;35.67;23.85;;;3.40;99.90;;;;;;5053321;28;20028;-80
2021/12/25 13:26:02;;;;;;;36.85;23.95;;;3.40;99.90;;;;;;5060394;28;20032;-81
2021/12/25 13:28:30;;;;;;;32.30;23.13;;;3.60;99.90;;;;;;5073189;28;20496;-81
2021/12/25 13:31:18;;;;;;;39.00;25.60;;;3.70;99.90;;;;;;5072807;28;20035;-81
2021/12/25 13:33:59;;;;;;;35.60;24.80;;;3.60;99.90;;;;;;5072818;28;20051;-80
2021/12/25 13:36:28;;;;;;;37.72;25.15;;;3.70;99.90;;;;;;5071882;28;20073;-80
2021/12/25 13:39:03;;;;;;;38.30;24.35;;;3.40;99.90;;;;;;5072674;28;20044;-80
2021/12/25 13:41:49;;;;;;;33.83;24.75;;;3.30;99.90;;;;;;5072667;28;20484;-81
2021/12/25 13:44:21;;;;;;;33.92;23.90;;;3.40;99.90;;;;;;5055154;28;20024;-81
2021/12/25 13:46:57;;;;;;;39.20;25.48;;;3.40;99.90;;;;;;5072346;28;20103;-80
2021/12/25 13:49:43;;;;;;;30.40;21.98;;;3.50;99.90;;;;;;5071557;28;20035;-81
2021/12/25 13:52:21;;;;;;;30.35;21.73;;;3.30;99.90;;;;;;5072706;28;20385;-81
2021/12/25 13:55:03;;;;;;;25.23;18.65;;;3.00;99.90;;;;;;5072850;28;20500;-77
2021/12/25 13:57:31;;;;;;;33.00;20.90;;;3.00;99.90;;;;;;5072810;28;20481;-80
2021/12/25 14:00:06;;;;;;;27.60;19.23;;;3.10;99.90;;;;;;5072498;28;20028;-81
2021/12/25 14:02:40;;;;;;;31.20;20.08;;;3.10;99.90;;;;;;5073905;28;20380;-82
2021/12/25 14:05:07;;;;;;;26.55;18.40;;;3.30;99.90;;;;;;5073902;28;20032;-81
2021/12/25 14:07:34;;;;;;;29.25;18.70;;;3.30;99.90;;;;;;5072451;28;20048;-82
2021/12/25 14:10:07;;;;;;;26.55;19.70;;;3.20;99.90;;;;;;5072574;28;20025;-82
2021/12/25 14:12:34;;;;;;;25.95;18.75;;;3.40;99.90;;;;;;5072703;28;20050;-79
2021/12/25 14:15:01;;;;;;;25.20;19.00;;;3.50;99.90;;;;;;5072503;28;20041;-81
2021/12/25 14:17:27;;;;;;;28.60;19.00;;;3.30;99.90;;;;;;5071133;28;20025;-81
2021/12/25 14:20:09;;;;;;;27.55;18.83;;;3.30;99.90;;;;;;5072489;28;20037;-78
2021/12/25 14:22:35;;;;;;;;;;;3.10;99.90;;;;;;5072992;28;20032;-80
2021/12/25 14:25:00;;;;;;;24.88;17.50;;;3.00;99.90;;;;;;5072405;28;20182;-81
2021/12/25 14:27:27;;;;;;;26.77;17.65;;;3.20;99.90;;;;;;5072206;28;20393;-81